Enter the Airport ICAO Code

Search by Airport or City

Current Weather

KSEA | Seattle–Tacoma International Airport

Seattle, Washington, United States

Last Update 46 Minutes Ago

Mostly Cloudy Sky

Temperature of 06 ºC

Light to Moderate Winds from SouthWest

Temperature

06 ºC

Dew Point Temperature

02 ºC

Relative Humidity

75.52 %

Wind Direction

SouthWest (210º, Without Significant Variations)

Wind Velocity

13 km/h (07 kt)

Gusts

None

Visibility

Greater than 10 Miles

Sea Level Pressure

29.94 inHg (Inches of Mercury)

Layers of Clouds

30% to 60% of Sky Covered from 1097 mts (3600 ft) Above Ground Level.

60% to 90% of Sky Covered from 1524 mts (5000 ft) Above Ground Level.

METAR KSEA 270353Z 21007KT 10SM SCT036 BKN050 06/02 A2994 RMK AO2 SLP147 T00560022

Weather Forecast

KSEA | Seattle–Tacoma International Airport

Seattle, Washington, United States

Forecast valid for the next 25 Hours

From now on it is expected:

Rain Shower

Light to Moderate Winds from SouthEast

In 6 hours it is expected the begining of:

Completely Cloudy Sky

Light to Moderate Winds from South

In 14 hours it is expected the begining of:

Mostly Cloudy Sky

In 24 hours it is expected the begining of:

Rain Shower

Maximum Temperature

No Data

Minimum Temperature

No Data

TAF KSEA 270305Z 2703/2806 12008KT P6SM VCSH FEW040 SCT080 SCT250 FM271100 18006KT P6SM OVC025 FM271900 20006KT P6SM BKN040 BKN070 FM280500 18007KT P6SM VCSH OVC025